sensor_id;sensor_type;location;lat;lon;timestamp;pressure;altitude;pressure_sealevel;temperature;humidity
75594;BME280;64176;49.156;7.810;2023-12-29T00:00:37;99171.38;;;8.40;100.00
75594;BME280;64176;49.156;7.810;2023-12-29T00:03:21;99160.06;;;8.31;100.00
75594;BME280;64176;49.156;7.810;2023-12-29T00:06:08;99160.97;;;8.31;100.00
75594;BME280;64176;49.156;7.810;2023-12-29T00:08:57;99170.56;;;8.43;100.00
75594;BME280;64176;49.156;7.810;2023-12-29T00:11:41;99169.75;;;8.47;100.00
75594;BME280;64176;49.156;7.810;2023-12-29T00:14:25;99161.94;;;8.41;100.00
75594;BME280;64176;49.156;7.810;2023-12-29T00:17:10;99164.50;;;8.38;100.00
75594;BME280;64176;49.156;7.810;2023-12-29T00:19:56;99169.69;;;8.43;100.00
75594;BME280;64176;49.156;7.810;2023-12-29T00:22:40;99165.34;;;8.40;100.00
75594;BME280;64176;49.156;7.810;2023-12-29T00:25:26;99172.31;;;8.46;100.00
75594;BME280;64176;49.156;7.810;2023-12-29T00:28:10;99164.56;;;8.46;100.00
75594;BME280;64176;49.156;7.810;2023-12-29T00:30:57;99157.63;;;8.40;100.00
75594;BME280;64176;49.156;7.810;2023-12-29T00:33:43;99157.78;;;8.52;100.00
75594;BME280;64176;49.156;7.810;2023-12-29T00:36:31;99138.91;;;8.53;100.00
75594;BME280;64176;49.156;7.810;2023-12-29T00:39:17;99137.91;;;8.42;100.00
75594;BME280;64176;49.156;7.810;2023-12-29T00:42:01;99147.41;;;8.45;100.00
75594;BME280;64176;49.156;7.810;2023-12-29T00:44:45;99151.69;;;8.44;100.00
75594;BME280;64176;49.156;7.810;2023-12-29T00:47:29;99161.25;;;8.56;100.00
75594;BME280;64176;49.156;7.810;2023-12-29T00:50:13;99162.19;;;8.59;100.00
75594;BME280;64176;49.156;7.810;2023-12-29T00:52:56;99142.31;;;8.49;100.00
75594;BME280;64176;49.156;7.810;2023-12-29T00:55:41;99151.78;;;8.53;100.00
75594;BME280;64176;49.156;7.810;2023-12-29T00:58:27;99155.19;;;8.49;100.00
75594;BME280;64176;49.156;7.810;2023-12-29T01:01:13;99144.03;;;8.50;100.00
75594;BME280;64176;49.156;7.810;2023-12-29T01:04:00;99139.72;;;8.48;100.00
75594;BME280;64176;49.156;7.810;2023-12-29T01:06:46;99144.13;;;8.58;100.00
75594;BME280;64176;49.156;7.810;2023-12-29T01:09:37;99144.88;;;8.49;100.00
75594;BME280;64176;49.156;7.810;2023-12-29T01:12:22;99139.75;;;8.52;100.00
75594;BME280;64176;49.156;7.810;2023-12-29T01:15:08;99134.66;;;8.55;100.00
75594;BME280;64176;49.156;7.810;2023-12-29T01:17:53;99140.69;;;8.57;100.00
75594;BME280;64176;49.156;7.810;2023-12-29T01:20:37;99142.41;;;8.58;100.00
75594;BME280;64176;49.156;7.810;2023-12-29T01:23:26;99126.00;;;8.50;100.00
75594;BME280;64176;49.156;7.810;2023-12-29T01:26:10;99139.78;;;8.55;100.00
75594;BME280;64176;49.156;7.810;2023-12-29T01:28:54;99138.97;;;8.58;100.00
75594;BME280;64176;49.156;7.810;2023-12-29T01:31:38;99138.16;;;8.60;100.00
75594;BME280;64176;49.156;7.810;2023-12-29T01:34:26;99144.97;;;8.57;100.00
75594;BME280;64176;49.156;7.810;2023-12-29T01:37:20;99145.75;;;8.53;100.00
75594;BME280;64176;49.156;7.810;2023-12-29T01:40:07;99144.09;;;8.56;100.00
75594;BME280;64176;49.156;7.810;2023-12-29T01:42:51;99137.16;;;8.52;100.00
75594;BME280;64176;49.156;7.810;2023-12-29T01:45:38;99138.09;;;8.56;100.00
75594;BME280;64176;49.156;7.810;2023-12-29T01:48:23;99132.09;;;8.57;100.00
75594;BME280;64176;49.156;7.810;2023-12-29T01:51:08;99126.84;;;8.48;100.00
75594;BME280;64176;49.156;7.810;2023-12-29T01:53:56;99119.97;;;8.48;100.00
75594;BME280;64176;49.156;7.810;2023-12-29T01:56:44;99112.94;;;8.33;100.00
75594;BME280;64176;49.156;7.810;2023-12-29T01:59:31;99123.13;;;8.27;100.00
75594;BME280;64176;49.156;7.810;2023-12-29T02:02:16;99119.81;;;8.34;100.00
75594;BME280;64176;49.156;7.810;2023-12-29T02:05:00;99119.78;;;8.33;100.00
75594;BME280;64176;49.156;7.810;2023-12-29T02:07:45;99119.66;;;8.24;100.00
75594;BME280;64176;49.156;7.810;2023-12-29T02:10:30;99109.41;;;8.30;100.00
75594;BME280;64176;49.156;7.810;2023-12-29T02:13:14;99111.25;;;8.35;100.00
75594;BME280;64176;49.156;7.810;2023-12-29T02:16:05;99116.34;;;8.32;100.00
75594;BME280;64176;49.156;7.810;2023-12-29T02:18:55;99100.81;;;8.29;100.00
75594;BME280;64176;49.156;7.810;2023-12-29T02:21:46;99096.63;;;8.34;100.00
75594;BME280;64176;49.156;7.810;2023-12-29T02:24:30;99094.94;;;8.36;100.00
75594;BME280;64176;49.156;7.810;2023-12-29T02:33:29;99090.53;;;8.29;100.00
75594;BME280;64176;49.156;7.810;2023-12-29T02:36:16;99083.81;;;8.37;100.00
75594;BME280;64176;49.156;7.810;2023-12-29T02:39:02;99086.31;;;8.33;100.00
75594;BME280;64176;49.156;7.810;2023-12-29T02:41:49;99069.06;;;8.27;100.00
75594;BME280;64176;49.156;7.810;2023-12-29T02:44:33;99080.28;;;8.32;100.00
75594;BME280;64176;49.156;7.810;2023-12-29T02:47:17;99069.22;;;8.38;100.00
75594;BME280;64176;49.156;7.810;2023-12-29T02:50:08;99064.78;;;8.31;100.00
75594;BME280;64176;49.156;7.810;2023-12-29T02:52:53;99069.91;;;8.29;100.00
75594;BME280;64176;49.156;7.810;2023-12-29T02:55:36;99082.88;;;8.32;100.00
75594;BME280;64176;49.156;7.810;2023-12-29T02:58:21;99075.16;;;8.32;100.00
75594;BME280;64176;49.156;7.810;2023-12-29T03:01:07;99070.06;;;8.40;100.00
75594;BME280;64176;49.156;7.810;2023-12-29T03:03:52;99073.53;;;8.39;100.00
75594;BME280;64176;49.156;7.810;2023-12-29T03:06:36;99066.59;;;8.35;100.00
75594;BME280;64176;49.156;7.810;2023-12-29T03:09:20;99072.63;;;8.37;100.00
75594;BME280;64176;49.156;7.810;2023-12-29T03:12:05;99070.06;;;8.37;100.00
75594;BME280;64176;49.156;7.810;2023-12-29T03:14:50;99050.34;;;8.39;100.00
75594;BME280;64176;49.156;7.810;2023-12-29T03:17:34;99071.91;;;8.49;100.00
75594;BME280;64176;49.156;7.810;2023-12-29T03:20:18;99056.38;;;8.43;100.00
75594;BME280;64176;49.156;7.810;2023-12-29T03:23:05;99076.03;;;8.34;100.00
75594;BME280;64176;49.156;7.810;2023-12-29T03:25:48;99074.19;;;8.26;100.00
75594;BME280;64176;49.156;7.810;2023-12-29T03:28:35;99073.50;;;8.37;100.00
75594;BME280;64176;49.156;7.810;2023-12-29T03:31:24;99086.38;;;8.40;100.00
75594;BME280;64176;49.156;7.810;2023-12-29T03:34:08;99079.50;;;8.39;100.00
75594;BME280;64176;49.156;7.810;2023-12-29T03:36:52;99080.38;;;8.38;100.00
75594;BME280;64176;49.156;7.810;2023-12-29T03:39:38;99064.97;;;8.43;100.00
75594;BME280;64176;49.156;7.810;2023-12-29T03:42:22;99070.97;;;8.42;100.00
75594;BME280;64176;49.156;7.810;2023-12-29T03:45:09;99072.66;;;8.38;100.00
75594;BME280;64176;49.156;7.810;2023-12-29T03:47:56;99070.13;;;8.45;100.00
75594;BME280;64176;49.156;7.810;2023-12-29T03:50:40;99062.38;;;8.38;100.00
75594;BME280;64176;49.156;7.810;2023-12-29T03:53:24;99063.31;;;8.47;100.00
75594;BME280;64176;49.156;7.810;2023-12-29T03:56:09;99071.06;;;8.51;100.00
75594;BME280;64176;49.156;7.810;2023-12-29T03:58:56;99073.63;;;8.51;100.00
75594;BME280;64176;49.156;7.810;2023-12-29T04:01:42;99075.34;;;8.51;100.00
75594;BME280;64176;49.156;7.810;2023-12-29T04:04:27;99068.59;;;8.63;100.00
75594;BME280;64176;49.156;7.810;2023-12-29T04:07:14;99066.06;;;8.65;100.00
75594;BME280;64176;49.156;7.810;2023-12-29T04:10:03;99077.19;;;8.64;100.00
75594;BME280;64176;49.156;7.810;2023-12-29T04:12:48;99071.19;;;8.63;100.00
75594;BME280;64176;49.156;7.810;2023-12-29T04:15:32;99069.47;;;8.61;100.00
75594;BME280;64176;49.156;7.810;2023-12-29T04:18:16;99075.47;;;8.60;100.00
75594;BME280;64176;49.156;7.810;2023-12-29T04:21:03;99079.75;;;8.59;100.00
75594;BME280;64176;49.156;7.810;2023-12-29T04:23:48;99076.31;;;8.59;100.00
75594;BME280;64176;49.156;7.810;2023-12-29T04:26:36;99080.56;;;8.55;100.00
75594;BME280;64176;49.156;7.810;2023-12-29T04:29:23;99084.81;;;8.53;100.00
75594;BME280;64176;49.156;7.810;2023-12-29T04:32:06;99082.25;;;8.53;100.00
75594;BME280;64176;49.156;7.810;2023-12-29T04:34:53;99084.78;;;8.52;100.00
75594;BME280;64176;49.156;7.810;2023-12-29T04:37:44;99085.66;;;8.49;100.00
75594;BME280;64176;49.156;7.810;2023-12-29T04:40:32;99069.19;;;8.35;100.00
75594;BME280;64176;49.156;7.810;2023-12-29T04:43:16;99085.63;;;8.46;100.00
75594;BME280;64176;49.156;7.810;2023-12-29T04:46:00;99079.56;;;8.44;100.00
75594;BME280;64176;49.156;7.810;2023-12-29T04:48:44;99069.34;;;8.49;100.00
75594;BME280;64176;49.156;7.810;2023-12-29T04:51:28;99087.53;;;8.65;100.00
75594;BME280;64176;49.156;7.810;2023-12-29T04:54:14;99087.50;;;8.62;100.00
75594;BME280;64176;49.156;7.810;2023-12-29T04:56:59;99080.50;;;8.51;100.00
75594;BME280;64176;49.156;7.810;2023-12-29T04:59:42;99075.34;;;8.49;100.00
75594;BME280;64176;49.156;7.810;2023-12-29T05:02:27;99054.72;;;8.48;100.00
75594;BME280;64176;49.156;7.810;2023-12-29T05:05:13;99065.06;;;8.49;100.00
75594;BME280;64176;49.156;7.810;2023-12-29T05:07:57;99067.59;;;8.46;100.00
75594;BME280;64176;49.156;7.810;2023-12-29T05:10:41;99071.13;;;8.56;100.00
75594;BME280;64176;49.156;7.810;2023-12-29T05:13:25;99064.97;;;8.43;100.00
75594;BME280;64176;49.156;7.810;2023-12-29T05:16:09;99072.69;;;8.43;100.00
75594;BME280;64176;49.156;7.810;2023-12-29T05:18:55;99082.13;;;8.43;100.00
75594;BME280;64176;49.156;7.810;2023-12-29T05:21:39;99076.06;;;8.36;100.00
75594;BME280;64176;49.156;7.810;2023-12-29T05:24:23;99079.50;;;8.36;100.00
75594;BME280;64176;49.156;7.810;2023-12-29T05:27:07;99076.88;;;8.33;100.00
75594;BME280;64176;49.156;7.810;2023-12-29T05:29:51;99076.91;;;8.35;100.00
75594;BME280;64176;49.156;7.810;2023-12-29T05:32:35;99076.00;;;8.33;100.00
75594;BME280;64176;49.156;7.810;2023-12-29T05:35:25;99076.91;;;8.36;100.00
75594;BME280;64176;49.156;7.810;2023-12-29T05:38:09;99069.19;;;8.36;100.00
75594;BME280;64176;49.156;7.810;2023-12-29T05:40:58;99073.41;;;8.31;100.00
75594;BME280;64176;49.156;7.810;2023-12-29T05:43:42;99066.66;;;8.38;100.00
75594;BME280;64176;49.156;7.810;2023-12-29T05:46:29;99060.56;;;8.33;100.00
75594;BME280;64176;49.156;7.810;2023-12-29T05:49:13;99068.22;;;8.28;100.00
75594;BME280;64176;49.156;7.810;2023-12-29T05:51:57;99075.91;;;8.25;100.00
75594;BME280;64176;49.156;7.810;2023-12-29T05:54:46;99069.81;;;8.20;100.00
75594;BME280;64176;49.156;7.810;2023-12-29T05:57:30;99078.66;;;8.37;100.00
75594;BME280;64176;49.156;7.810;2023-12-29T06:00:14;99076.13;;;8.42;100.00
75594;BME280;64176;49.156;7.810;2023-12-29T06:02:58;99072.59;;;8.34;100.00
75594;BME280;64176;49.156;7.810;2023-12-29T06:05:50;99067.50;;;8.37;100.00
75594;BME280;64176;49.156;7.810;2023-12-29T06:08:34;99081.19;;;8.34;100.00
75594;BME280;64176;49.156;7.810;2023-12-29T06:11:18;99078.69;;;8.39;100.00
75594;BME280;64176;49.156;7.810;2023-12-29T06:14:02;99069.94;;;8.31;100.00
75594;BME280;64176;49.156;7.810;2023-12-29T06:16:50;99078.66;;;8.37;100.00
75594;BME280;64176;49.156;7.810;2023-12-29T06:19:34;99073.47;;;8.36;100.00
75594;BME280;64176;49.156;7.810;2023-12-29T06:22:20;99076.09;;;8.40;100.00
75594;BME280;64176;49.156;7.810;2023-12-29T06:25:04;99080.44;;;8.45;100.00
75594;BME280;64176;49.156;7.810;2023-12-29T06:27:51;99076.94;;;8.39;100.00
75594;BME280;64176;49.156;7.810;2023-12-29T06:30:35;99085.50;;;8.37;100.00
75594;BME280;64176;49.156;7.810;2023-12-29T06:33:19;99085.53;;;8.38;100.00
75594;BME280;64176;49.156;7.810;2023-12-29T06:36:06;99083.88;;;8.45;100.00
75594;BME280;64176;49.156;7.810;2023-12-29T06:38:52;99088.97;;;8.42;100.00
75594;BME280;64176;49.156;7.810;2023-12-29T06:41:38;99088.94;;;8.36;100.00
75594;BME280;64176;49.156;7.810;2023-12-29T06:44:22;99087.31;;;8.46;100.00
75594;BME280;64176;49.156;7.810;2023-12-29T06:47:06;99083.06;;;8.48;100.00
75594;BME280;64176;49.156;7.810;2023-12-29T06:49:53;99083.94;;;8.50;100.00
75594;BME280;64176;49.156;7.810;2023-12-29T06:52:41;99082.19;;;8.47;100.00
75594;BME280;64176;49.156;7.810;2023-12-29T06:55:25;99072.84;;;8.57;100.00
75594;BME280;64176;49.156;7.810;2023-12-29T06:58:09;99069.38;;;8.55;100.00
75594;BME280;64176;49.156;7.810;2023-12-29T07:00:53;99069.34;;;8.52;100.00
75594;BME280;64176;49.156;7.810;2023-12-29T07:03:39;99075.50;;;8.66;100.00
75594;BME280;64176;49.156;7.810;2023-12-29T07:06:23;99071.19;;;8.65;100.00
75594;BME280;64176;49.156;7.810;2023-12-29T07:09:07;99071.19;;;8.63;100.00
75594;BME280;64176;49.156;7.810;2023-12-29T07:11:53;99074.59;;;8.62;100.00
75594;BME280;64176;49.156;7.810;2023-12-29T07:14:41;99073.84;;;8.69;100.00
75594;BME280;64176;49.156;7.810;2023-12-29T07:17:25;99060.88;;;8.60;100.00
75594;BME280;64176;49.156;7.810;2023-12-29T07:20:09;99061.00;;;8.72;100.00
75594;BME280;64176;49.156;7.810;2023-12-29T07:22:56;99059.28;;;8.76;100.00
75594;BME280;64176;49.156;7.810;2023-12-29T07:25:40;99065.34;;;8.80;100.00
75594;BME280;64176;49.156;7.810;2023-12-29T07:28:25;99036.94;;;8.70;100.00
75594;BME280;64176;49.156;7.810;2023-12-29T07:31:12;99061.16;;;8.91;100.00
75594;BME280;64176;49.156;7.810;2023-12-29T07:33:59;99069.72;;;8.90;100.00
75594;BME280;64176;49.156;7.810;2023-12-29T07:36:43;99064.63;;;8.94;100.00
75594;BME280;64176;49.156;7.810;2023-12-29T07:39:29;99064.59;;;8.91;100.00
75594;BME280;64176;49.156;7.810;2023-12-29T07:42:18;99067.09;;;8.85;100.00
75594;BME280;64176;49.156;7.810;2023-12-29T07:45:02;99062.78;;;8.81;100.00
75594;BME280;64176;49.156;7.810;2023-12-29T07:47:47;99064.47;;;8.77;100.00
75594;BME280;64176;49.156;7.810;2023-12-29T07:50:36;99073.06;;;8.80;100.00
75594;BME280;64176;49.156;7.810;2023-12-29T07:53:20;99067.19;;;8.91;100.00
75594;BME280;64176;49.156;7.810;2023-12-29T07:56:07;99074.06;;;8.94;100.00
75594;BME280;64176;49.156;7.810;2023-12-29T07:58:50;99071.47;;;8.91;100.00
75594;BME280;64176;49.156;7.810;2023-12-29T08:01:37;99068.88;;;8.91;100.00
75594;BME280;64176;49.156;7.810;2023-12-29T08:04:23;99066.28;;;8.89;100.00
75594;BME280;64176;49.156;7.810;2023-12-29T08:07:07;99065.47;;;8.93;100.00
75594;BME280;64176;49.156;7.810;2023-12-29T08:09:51;99076.66;;;8.94;100.00
75594;BME280;64176;49.156;7.810;2023-12-29T08:12:35;99079.22;;;8.92;100.00
75594;BME280;64176;49.156;7.810;2023-12-29T08:15:22;99081.81;;;8.94;100.00
75594;BME280;64176;49.156;7.810;2023-12-29T08:18:06;99078.38;;;8.98;100.00
75594;BME280;64176;49.156;7.810;2023-12-29T08:20:50;99074.94;;;8.93;100.00
75594;BME280;64176;49.156;7.810;2023-12-29T08:23:37;99076.66;;;8.97;100.00
75594;BME280;64176;49.156;7.810;2023-12-29T08:26:21;99093.00;;;8.99;100.00
75594;BME280;64176;49.156;7.810;2023-12-29T08:29:05;99086.19;;;9.02;100.00
75594;BME280;64176;49.156;7.810;2023-12-29T08:31:53;99082.72;;;9.02;100.00
75594;BME280;64176;49.156;7.810;2023-12-29T08:34:37;99092.28;;;9.12;100.00
75594;BME280;64176;49.156;7.810;2023-12-29T08:37:21;99081.91;;;9.09;100.00
75594;BME280;64176;49.156;7.810;2023-12-29T08:40:06;99088.81;;;9.11;100.00
75594;BME280;64176;49.156;7.810;2023-12-29T08:42:51;99087.16;;;9.15;100.00
75594;BME280;64176;49.156;7.810;2023-12-29T08:45:38;99093.13;;;9.12;100.00
75594;BME280;64176;49.156;7.810;2023-12-29T08:48:22;99088.84;;;9.15;100.00
75594;BME280;64176;49.156;7.810;2023-12-29T08:51:09;99096.63;;;9.16;100.00
75594;BME280;64176;49.156;7.810;2023-12-29T08:53:56;99092.22;;;9.09;100.00
75594;BME280;64176;49.156;7.810;2023-12-29T08:56:40;99091.41;;;9.13;100.00
75594;BME280;64176;49.156;7.810;2023-12-29T08:59:24;99099.19;;;9.16;100.00
75594;BME280;64176;49.156;7.810;2023-12-29T09:02:08;99097.50;;;9.21;100.00
75594;BME280;64176;49.156;7.810;2023-12-29T09:04:52;99091.44;;;9.18;100.00
75594;BME280;64176;49.156;7.810;2023-12-29T09:07:36;99094.91;;;9.21;100.00
75594;BME280;64176;49.156;7.810;2023-12-29T09:10:25;99099.25;;;9.24;100.00
75594;BME280;64176;49.156;7.810;2023-12-29T09:13:12;99098.41;;;9.29;100.00
75594;BME280;64176;49.156;7.810;2023-12-29T09:15:56;99101.88;;;9.31;100.00
75594;BME280;64176;49.156;7.810;2023-12-29T09:18:42;99102.81;;;9.41;100.00
75594;BME280;64176;49.156;7.810;2023-12-29T09:21:26;99095.13;;;9.45;100.00
75594;BME280;64176;49.156;7.810;2023-12-29T09:24:15;99097.75;;;9.53;100.00
75594;BME280;64176;49.156;7.810;2023-12-29T09:27:02;99097.75;;;9.56;100.00
75594;BME280;64176;49.156;7.810;2023-12-29T09:29:49;99093.44;;;9.52;100.00
75594;BME280;64176;49.156;7.810;2023-12-29T09:32:36;99091.75;;;9.57;100.00
75594;BME280;64176;49.156;7.810;2023-12-29T09:35:20;99096.91;;;9.56;100.00
75594;BME280;64176;49.156;7.810;2023-12-29T09:38:04;99108.97;;;9.58;100.00
75594;BME280;64176;49.156;7.810;2023-12-29T09:40:48;99113.22;;;9.53;100.00
75594;BME280;64176;49.156;7.810;2023-12-29T09:43:33;99130.41;;;9.53;100.00
75594;BME280;64176;49.156;7.810;2023-12-29T09:46:19;99116.69;;;9.61;100.00
75594;BME280;64176;49.156;7.810;2023-12-29T09:49:10;99107.38;;;9.78;100.00
75594;BME280;64176;49.156;7.810;2023-12-29T09:51:58;99106.59;;;9.92;100.00
75594;BME280;64176;49.156;7.810;2023-12-29T09:54:44;99111.78;;;9.99;100.00
75594;BME280;64176;49.156;7.810;2023-12-29T09:57:28;99104.97;;;10.12;100.00
75594;BME280;64176;49.156;7.810;2023-12-29T10:00:18;99103.31;;;10.18;100.00
75594;BME280;64176;49.156;7.810;2023-12-29T10:03:05;99102.41;;;10.12;100.00
75594;BME280;64176;49.156;7.810;2023-12-29T10:05:54;99096.38;;;10.13;100.00
75594;BME280;64176;49.156;7.810;2023-12-29T10:08:45;99094.66;;;10.16;100.00
75594;BME280;64176;49.156;7.810;2023-12-29T10:11:33;99086.13;;;10.24;100.00
75594;BME280;64176;49.156;7.810;2023-12-29T10:14:28;99087.00;;;10.27;100.00
75594;BME280;64176;49.156;7.810;2023-12-29T10:20:27;99074.09;;;10.39;100.00
75594;BME280;64176;49.156;7.810;2023-12-29T10:23:29;99079.28;;;10.42;100.00
75594;BME280;64176;49.156;7.810;2023-12-29T10:26:18;99071.56;;;10.51;100.00
75594;BME280;64176;49.156;7.810;2023-12-29T10:29:03;99083.63;;;10.48;100.00
75594;BME280;64176;49.156;7.810;2023-12-29T10:31:48;99063.81;;;10.44;100.00
75594;BME280;64176;49.156;7.810;2023-12-29T10:34:32;99062.97;;;10.55;100.00
75594;BME280;64176;49.156;7.810;2023-12-29T10:37:24;99062.94;;;10.45;100.00
75594;BME280;64176;49.156;7.810;2023-12-29T10:40:08;99058.66;;;10.47;100.00
75594;BME280;64176;49.156;7.810;2023-12-29T10:42:53;99051.72;;;10.41;99.96
75594;BME280;64176;49.156;7.810;2023-12-29T10:45:38;99053.47;;;10.45;99.73
75594;BME280;64176;49.156;7.810;2023-12-29T10:48:24;99048.28;;;10.41;99.87
75594;BME280;64176;49.156;7.810;2023-12-29T10:51:08;99019.00;;;10.33;100.00
75594;BME280;64176;49.156;7.810;2023-12-29T10:53:56;99037.94;;;10.41;99.04
75594;BME280;64176;49.156;7.810;2023-12-29T10:56:40;99050.03;;;10.54;99.92
75594;BME280;64176;49.156;7.810;2023-12-29T10:59:27;99040.56;;;10.47;99.24
75594;BME280;64176;49.156;7.810;2023-12-29T11:02:13;99036.25;;;10.46;99.68
75594;BME280;64176;49.156;7.810;2023-12-29T11:05:02;99031.09;;;10.47;99.51
75594;BME280;64176;49.156;7.810;2023-12-29T11:07:47;99038.84;;;10.49;99.66
75594;BME280;64176;49.156;7.810;2023-12-29T11:10:31;99042.28;;;10.54;100.00
75594;BME280;64176;49.156;7.810;2023-12-29T11:13:16;99032.81;;;10.54;98.83
75594;BME280;64176;49.156;7.810;2023-12-29T11:16:00;99054.38;;;10.58;98.91
75594;BME280;64176;49.156;7.810;2023-12-29T11:18:50;99030.25;;;10.62;98.26
75594;BME280;64176;49.156;7.810;2023-12-29T11:21:38;99021.63;;;10.54;98.22
75594;BME280;64176;49.156;7.810;2023-12-29T11:24:26;99031.09;;;10.55;99.33
75594;BME280;64176;49.156;7.810;2023-12-29T11:27:12;99021.63;;;10.52;99.56
75594;BME280;64176;49.156;7.810;2023-12-29T11:30:00;99028.50;;;10.50;99.91
75594;BME280;64176;49.156;7.810;2023-12-29T11:32:54;99024.22;;;10.55;99.95
75594;BME280;64176;49.156;7.810;2023-12-29T11:35:57;99020.75;;;10.52;100.00
75594;BME280;64176;49.156;7.810;2023-12-29T11:41:54;99029.34;;;10.43;100.00
75594;BME280;64176;49.156;7.810;2023-12-29T11:44:42;99018.16;;;10.37;99.91
75594;BME280;64176;49.156;7.810;2023-12-29T11:47:35;99007.78;;;10.31;100.00
75594;BME280;64176;49.156;7.810;2023-12-29T11:50:33;99012.94;;;10.29;100.00
75594;BME280;64176;49.156;7.810;2023-12-29T11:53:33;99025.84;;;10.28;100.00
75594;BME280;64176;49.156;7.810;2023-12-29T11:56:16;99005.22;;;10.25;100.00
75594;BME280;64176;49.156;7.810;2023-12-29T11:59:27;99006.91;;;10.23;100.00
75594;BME280;64176;49.156;7.810;2023-12-29T12:02:27;99000.88;;;10.22;100.00
75594;BME280;64176;49.156;7.810;2023-12-29T12:05:11;99006.84;;;10.16;100.00
75594;BME280;64176;49.156;7.810;2023-12-29T12:07:57;99000.81;;;10.11;100.00
75594;BME280;64176;49.156;7.810;2023-12-29T12:10:46;99007.72;;;10.14;100.00
75594;BME280;64176;49.156;7.810;2023-12-29T12:13:51;98997.38;;;10.11;100.00
75594;BME280;64176;49.156;7.810;2023-12-29T12:19:32;98995.63;;;10.05;100.00
75594;BME280;64176;49.156;7.810;2023-12-29T12:22:23;99000.78;;;10.05;100.00
75594;BME280;64176;49.156;7.810;2023-12-29T12:25:10;98984.44;;;10.00;100.00
75594;BME280;64176;49.156;7.810;2023-12-29T12:27:55;98989.63;;;10.11;100.00
75594;BME280;64176;49.156;7.810;2023-12-29T12:30:40;98983.59;;;10.16;100.00
75594;BME280;64176;49.156;7.810;2023-12-29T12:33:24;98988.84;;;10.24;100.00
75594;BME280;64176;49.156;7.810;2023-12-29T12:36:11;98998.31;;;10.20;100.00
75594;BME280;64176;49.156;7.810;2023-12-29T12:38:57;98984.47;;;10.17;100.00
75594;BME280;64176;49.156;7.810;2023-12-29T12:41:41;98985.34;;;10.17;100.00
75594;BME280;64176;49.156;7.810;2023-12-29T12:44:29;98981.91;;;10.15;100.00
75594;BME280;64176;49.156;7.810;2023-12-29T12:47:24;98979.31;;;10.17;100.00
75594;BME280;64176;49.156;7.810;2023-12-29T12:50:10;98977.59;;;10.17;100.00
75594;BME280;64176;49.156;7.810;2023-12-29T12:52:56;98992.25;;;10.18;100.00
75594;BME280;64176;49.156;7.810;2023-12-29T12:55:45;98985.31;;;10.08;100.00
75594;BME280;64176;49.156;7.810;2023-12-29T12:58:31;98985.31;;;10.08;100.00
75594;BME280;64176;49.156;7.810;2023-12-29T13:01:15;98990.47;;;10.05;100.00
75594;BME280;64176;49.156;7.810;2023-12-29T13:04:03;98992.19;;;9.99;100.00
75594;BME280;64176;49.156;7.810;2023-12-29T13:06:52;99001.63;;;9.94;100.00
75594;BME280;64176;49.156;7.810;2023-12-29T13:09:39;98996.44;;;9.88;100.00
75594;BME280;64176;49.156;7.810;2023-12-29T13:12:23;98996.44;;;9.81;100.00
75594;BME280;64176;49.156;7.810;2023-12-29T13:15:08;99001.56;;;9.80;100.00
75594;BME280;64176;49.156;7.810;2023-12-29T13:17:55;98992.97;;;9.79;100.00
75594;BME280;64176;49.156;7.810;2023-12-29T13:20:48;99003.28;;;9.79;100.00
75594;BME280;64176;49.156;7.810;2023-12-29T13:23:33;99008.41;;;9.75;100.00
75594;BME280;64176;49.156;7.810;2023-12-29T13:26:18;99000.69;;;9.78;100.00
75594;BME280;64176;49.156;7.810;2023-12-29T13:29:05;99001.56;;;9.78;100.00
75594;BME280;64176;49.156;7.810;2023-12-29T13:31:50;99002.44;;;9.79;100.00
75594;BME280;64176;49.156;7.810;2023-12-29T13:35:05;99016.16;;;9.73;100.00
75594;BME280;64176;49.156;7.810;2023-12-29T13:43:34;99000.56;;;9.47;100.00
75594;BME280;64176;49.156;7.810;2023-12-29T13:46:22;99016.88;;;9.46;100.00
75594;BME280;64176;49.156;7.810;2023-12-29T13:49:07;99016.03;;;9.47;100.00
75594;BME280;64176;49.156;7.810;2023-12-29T13:51:54;99017.75;;;9.47;100.00
75594;BME280;64176;49.156;7.810;2023-12-29T13:54:41;99017.69;;;9.41;100.00
75594;BME280;64176;49.156;7.810;2023-12-29T13:57:30;99013.34;;;9.32;100.00
75594;BME280;64176;49.156;7.810;2023-12-29T14:03:22;99015.88;;;9.25;100.00
75594;BME280;64176;49.156;7.810;2023-12-29T14:06:20;99013.34;;;9.28;100.00
75594;BME280;64176;49.156;7.810;2023-12-29T14:09:06;99005.47;;;9.12;100.00
75594;BME280;64176;49.156;7.810;2023-12-29T14:11:53;99016.69;;;9.16;100.00
75594;BME280;64176;49.156;7.810;2023-12-29T14:14:37;99020.09;;;9.12;100.00
75594;BME280;64176;49.156;7.810;2023-12-29T14:17:23;99031.28;;;9.16;100.00
75594;BME280;64176;49.156;7.810;2023-12-29T14:20:10;99035.56;;;9.12;100.00
75594;BME280;64176;49.156;7.810;2023-12-29T14:23:03;99033.00;;;9.15;100.00
75594;BME280;64176;49.156;7.810;2023-12-29T14:25:48;99028.72;;;9.16;100.00
75594;BME280;64176;49.156;7.810;2023-12-29T14:28:35;99020.94;;;9.11;100.00
75594;BME280;64176;49.156;7.810;2023-12-29T14:31:19;99037.31;;;9.16;100.00
75594;BME280;64176;49.156;7.810;2023-12-29T14:34:06;99033.84;;;9.17;100.00
75594;BME280;64176;49.156;7.810;2023-12-29T14:36:51;99029.53;;;9.11;100.00
75594;BME280;64176;49.156;7.810;2023-12-29T14:39:40;99027.75;;;9.06;100.00
75594;BME280;64176;49.156;7.810;2023-12-29T14:42:31;99031.22;;;9.05;100.00
75594;BME280;64176;49.156;7.810;2023-12-29T14:45:17;99023.44;;;9.02;100.00
75594;BME280;64176;49.156;7.810;2023-12-29T14:48:02;99014.88;;;9.04;100.00
75594;BME280;64176;49.156;7.810;2023-12-29T14:50:48;99022.59;;;9.03;100.00
75594;BME280;64176;49.156;7.810;2023-12-29T14:53:38;99023.44;;;9.00;100.00
75594;BME280;64176;49.156;7.810;2023-12-29T14:56:22;99026.06;;;9.05;100.00
75594;BME280;64176;49.156;7.810;2023-12-29T14:59:06;99008.78;;;8.98;100.00
75594;BME280;64176;49.156;7.810;2023-12-29T15:01:53;99018.31;;;9.05;100.00